Time;durP1;ratioP1;P1;durP2;ratioP2;P2;SDS_P1;SDS_P2;PMS_P1;PMS_P2;Temp;Humidity;BMP_temperature;BMP_pressure;BME280_temperature;BME280_humidity;BME280_pressure;Samples;Min_cycle;Max_cycle;Signal;HPM_P1;HPM_P2
2022/08/05 00:02:07;;;;;;;8.43;8.02;;;;;;;22.21;100.00;-18346.53;5092498;28;20188;-62
2022/08/05 00:04:36;;;;;;;9.05;8.57;;;;;;;22.17;100.00;-18347.47;5092183;28;20207;-62
2022/08/05 00:07:03;;;;;;;9.35;8.85;;;;;;;22.20;100.00;-18348.19;5092415;28;20226;-62
2022/08/05 00:09:30;;;;;;;9.43;8.77;;;;;;;22.17;100.00;-18347.47;5092348;28;20260;-62
2022/08/05 00:11:58;;;;;;;10.63;8.95;;;;;;;22.08;100.00;-18345.47;5092025;28;20205;-62
2022/08/05 00:14:25;;;;;;;10.70;10.05;;;;;;;22.14;100.00;-18346.88;5092102;28;20231;-62
2022/08/05 00:16:52;;;;;;;10.23;9.90;;;;;;;22.07;100.00;-18345.09;5092161;28;20229;-62
2022/08/05 00:19:19;;;;;;;10.30;9.82;;;;;;;22.16;100.00;-18347.38;5092009;28;20234;-62
2022/08/05 00:21:47;;;;;;;10.90;10.25;;;;;;;22.17;100.00;-18347.59;5091841;28;20191;-62
2022/08/05 00:24:14;;;;;;;11.07;10.48;;;;;;;22.13;100.00;-18346.66;5092102;28;20710;-62
2022/08/05 00:26:41;;;;;;;10.68;9.85;;;;;;;21.87;100.00;-18340.59;5092258;28;20238;-62
2022/08/05 00:29:08;;;;;;;11.00;10.50;;;;;;;21.93;100.00;-18341.78;5092003;28;20245;-62
2022/08/05 00:31:36;;;;;;;11.48;10.95;;;;;;;21.88;100.00;-18340.69;5092138;28;20207;-62
2022/08/05 00:34:03;;;;;;;12.25;11.35;;;;;;;21.99;100.00;-18343.31;5092152;28;20234;-62
2022/08/05 00:36:30;;;;;;;12.25;11.23;;;;;;;22.00;100.00;-18343.56;5091774;28;20327;-62
2022/08/05 00:38:58;;;;;;;14.60;13.80;;;;;;;22.00;100.00;-18343.56;5091709;28;20180;-61
2022/08/05 00:41:30;;;;;;;13.90;13.07;;;;;;;21.91;100.00;-18341.41;5092070;28;20685;-62
2022/08/05 00:43:57;;;;;;;13.05;12.15;;;;;;;22.00;100.00;-18343.56;5091963;28;20245;-62
2022/08/05 00:46:24;;;;;;;13.88;12.80;;;;;;;21.93;100.00;-18341.91;5092103;28;20211;-62
2022/08/05 00:48:52;;;;;;;13.35;12.45;;;;;;;21.88;100.00;-18340.69;5091977;28;20184;-62
2022/08/05 00:51:20;;;;;;;14.13;13.13;;;;;;;21.81;100.00;-18339.03;5091581;28;20180;-62
2022/08/05 00:53:47;;;;;;;14.05;13.05;;;;;;;21.80;100.00;-18338.81;5090436;28;20188;-61
2022/08/05 00:56:17;;;;;;;14.35;12.88;;;;;;;21.72;100.00;-18337.03;5091819;28;20619;-62
2022/08/05 00:58:44;;;;;;;13.90;12.77;;;;;;;21.84;100.00;-18339.75;5091627;28;20188;-62
2022/08/05 01:01:14;;;;;;;13.98;13.30;;;;;;;21.77;100.00;-18338.19;5091539;28;20192;-62
2022/08/05 01:03:42;;;;;;;14.00;13.10;;;;;;;21.77;100.00;-18338.09;5091551;28;20188;-61
2022/08/05 01:06:10;;;;;;;14.43;13.43;;;;;;;21.83;100.00;-18339.63;5091361;28;20203;-61
2022/08/05 01:08:38;;;;;;;15.38;14.32;;;;;;;21.78;100.00;-18338.44;5094966;28;20237;-62
2022/08/05 01:11:11;;;;;;;14.48;13.35;;;;;;;21.84;100.00;-18339.75;5095442;28;20253;-62
2022/08/05 01:13:48;;;;;;;14.27;13.02;;;;;;;21.79;100.00;-18338.69;5095670;28;20617;-63
2022/08/05 01:16:24;;;;;;;15.10;13.90;;;;;;;21.68;100.00;-18336.06;5095361;28;20180;-62
2022/08/05 01:18:58;;;;;;;13.98;12.73;;;;;;;21.72;100.00;-18337.03;5095346;28;20245;-63
2022/08/05 01:21:51;;;;;;;14.30;13.35;;;;;;;21.54;100.00;-18332.72;5095823;28;20229;-62
2022/08/05 01:24:41;;;;;;;14.10;13.10;;;;;;;21.54;100.00;-18332.72;5095179;28;20245;-61
2022/08/05 01:27:23;;;;;;;13.63;12.73;;;;;;;21.40;100.00;-18329.53;5095522;28;20188;-63
2022/08/05 01:29:56;;;;;;;13.73;13.13;;;;;;;21.34;100.00;-18328.09;5095046;28;20200;-63
2022/08/05 01:32:28;;;;;;;14.00;12.77;;;;;;;21.37;100.00;-18328.81;5095336;28;20559;-62
2022/08/05 01:34:58;;;;;;;14.40;12.93;;;;;;;21.42;100.00;-18330.00;5094984;28;20245;-62
2022/08/05 01:37:34;;;;;;;13.93;13.17;;;;;;;21.42;100.00;-18330.00;5095297;28;20261;-62
2022/08/05 01:40:02;;;;;;;14.35;13.00;;;;;;;21.51;100.00;-18331.91;5095181;28;20646;-64
2022/08/05 01:42:31;;;;;;;15.05;13.60;;;;;;;21.50;100.00;-18331.66;5094908;28;20184;-62
2022/08/05 01:45:01;;;;;;;14.93;13.52;;;;;;;21.51;100.00;-18332.03;5095341;28;20300;-61
2022/08/05 01:47:31;;;;;;;13.47;12.80;;;;;;;21.43;100.00;-18330.22;5095091;28;20265;-62
2022/08/05 01:50:01;;;;;;;14.20;13.20;;;;;;;21.47;100.00;-18330.94;5094962;28;20177;-62
2022/08/05 01:52:33;;;;;;;13.27;12.38;;;;;;;21.16;100.00;-18323.81;5094675;28;20192;-61
2022/08/05 01:55:09;;;;;;;13.02;12.23;;;;;;;21.31;100.00;-18327.25;5094569;28;20188;-62
2022/08/05 01:57:39;;;;;;;13.70;12.52;;;;;;;21.32;100.00;-18327.63;5094839;28;20615;-61
2022/08/05 02:00:10;;;;;;;14.93;13.52;;;;;;;21.39;100.00;-18329.28;5094460;28;20188;-62
2022/08/05 02:02:40;;;;;;;13.75;12.77;;;;;;;21.37;100.00;-18328.69;5094749;28;20203;-62
2022/08/05 02:05:12;;;;;;;18.48;15.02;;;;;;;21.41;100.00;-18329.75;5094714;28;20204;-62
2022/08/05 02:07:41;;;;;;;16.83;15.63;;;;;;;21.24;100.00;-18325.72;5094644;28;20198;-62
2022/08/05 02:10:10;;;;;;;18.88;14.77;;;;;;;21.39;100.00;-18329.28;5094479;28;20180;-62
2022/08/05 02:12:44;;;;;;;21.02;14.57;;;;;;;21.29;100.00;-18326.91;5094149;28;20220;-63
2022/08/05 02:15:21;;;;;;;16.45;15.05;;;;;;;21.31;100.00;-18327.25;5094573;28;20259;-63
2022/08/05 02:17:52;;;;;;;19.17;16.42;;;;;;;21.29;100.00;-18326.91;5094251;28;20184;-63
2022/08/05 02:20:24;;;;;;;16.77;15.63;;;;;;;21.16;100.00;-18323.81;5093439;28;20608;-62
2022/08/05 02:22:57;;;;;;;19.42;15.93;;;;;;;21.37;100.00;-18328.81;5094426;28;20180;-62
2022/08/05 02:25:28;;;;;;;17.13;15.77;;;;;;;21.16;100.00;-18323.81;5094009;28;20253;-62
2022/08/05 02:27:57;;;;;;;17.70;16.20;;;;;;;21.14;100.00;-18323.22;5094289;28;20214;-62
2022/08/05 02:30:31;;;;;;;17.17;15.77;;;;;;;21.19;100.00;-18324.41;5094003;28;20184;-62
2022/08/05 02:33:00;;;;;;;16.03;15.00;;;;;;;21.13;100.00;-18323.09;5094298;28;20199;-61
2022/08/05 02:35:28;;;;;;;16.63;15.20;;;;;;;21.00;100.00;-18319.88;5093810;28;20210;-60
2022/08/05 02:37:58;;;;;;;16.70;15.35;;;;;;;20.88;100.00;-18317.13;5094179;28;20670;-61
2022/08/05 02:40:26;;;;;;;17.45;15.63;;;;;;;21.06;100.00;-18321.31;5093814;28;20192;-62
2022/08/05 02:42:54;;;;;;;17.17;15.77;;;;;;;21.00;100.00;-18320.00;5093684;28;20619;-62
2022/08/05 02:45:22;;;;;;;17.10;15.57;;;;;;;20.90;100.00;-18317.59;5093685;28;20235;-62
2022/08/05 02:47:53;;;;;;;17.50;15.70;;;;;;;21.01;100.00;-18320.22;5093862;28;20570;-62
2022/08/05 02:50:23;;;;;;;17.73;16.00;;;;;;;21.07;100.00;-18321.53;5093672;28;20271;-61
2022/08/05 02:52:52;;;;;;;18.10;15.80;;;;;;;21.16;100.00;-18323.81;5093597;28;20188;-62
2022/08/05 02:55:20;;;;;;;16.10;14.48;;;;;;;21.28;100.00;-18326.66;5093716;28;20180;-62
2022/08/05 02:57:48;;;;;;;13.85;12.85;;;;;;;21.26;100.00;-18326.19;5093693;28;20623;-62
2022/08/05 03:00:16;;;;;;;13.90;12.80;;;;;;;21.39;100.00;-18329.28;5093400;28;20244;-62
2022/08/05 03:02:46;;;;;;;13.80;12.25;;;;;;;21.46;100.00;-18330.72;5093340;28;20228;-61
2022/08/05 03:05:16;;;;;;;11.43;10.80;;;;;;;21.46;100.00;-18328.94;5092004;28;20184;-62
2022/08/05 03:07:44;;;;;;;11.40;10.80;;;;;;;21.58;100.00;-17361.50;5093381;28;20203;-61
2022/08/05 03:10:11;;;;;;;9.80;9.20;;;;;;;21.65;100.00;-13478.50;5093534;28;20646;-63
2022/08/05 03:12:39;;;;;;;10.73;10.00;;;;;;;21.61;100.00;-10885.88;5092900;28;20184;-61
2022/08/05 03:15:09;;;;;;;11.75;11.07;;;;;;;21.71;100.00;-10562.81;5093458;28;20188;-62
2022/08/05 03:17:36;;;;;;;12.80;11.80;;;;;;;21.72;100.00;-11211.31;5093319;28;20181;-62
2022/08/05 03:20:03;;;;;;;12.57;11.52;;;;;;;21.67;100.00;-12182.94;5093028;28;20237;-62
2022/08/05 03:22:31;;;;;;;10.87;10.13;;;;;;;21.73;100.00;-9914.50;5093303;28;20184;-62
2022/08/05 03:24:59;;;;;;;11.20;10.35;;;;;;;21.77;100.00;-7968.47;5092886;28;20180;-62
2022/08/05 03:27:26;;;;;;;10.65;9.88;;;;;;;21.87;100.00;-6345.97;5093054;28;20230;-62
2022/08/05 03:29:53;;;;;;;10.00;9.57;;;;;;;21.91;100.00;-4397.09;5092782;28;20194;-61
2022/08/05 03:32:21;;;;;;;8.95;8.25;;;;;;;22.07;100.00;-1145.50;5092754;28;20188;-62
2022/08/05 03:34:49;;;;;;;8.45;7.90;;;;;;;22.55;100.00;9291.72;5093038;28;20599;-62
2022/08/05 03:37:16;;;;;;;8.48;7.65;;;;;;;22.88;100.00;21084.25;5092927;28;20222;-61
2022/08/05 03:39:55;;;;;;;7.32;6.72;;;;;;;23.06;100.00;30618.50;5093104;28;20188;-61
2022/08/05 03:42:22;;;;;;;7.85;7.20;;;;;;;23.18;100.00;36224.16;5092853;28;20184;-62
2022/08/05 03:44:49;;;;;;;7.25;6.85;;;;;;;23.29;100.00;43160.75;5092998;28;20269;-62
2022/08/05 03:47:16;;;;;;;7.60;7.07;;;;;;;23.50;100.00;53768.53;5092982;28;20203;-62
2022/08/05 03:49:43;;;;;;;7.22;6.82;;;;;;;23.88;100.00;73430.56;5092899;28;20241;-61
2022/08/05 03:52:17;;;;;;;7.63;6.63;;;;;;;24.22;100.00;97590.84;5091465;28;20562;-62
2022/08/05 03:54:50;;;;;;;7.68;6.95;;;;;;;24.34;100.00;117165.78;5092539;28;20241;-63
2022/08/05 03:57:24;;;;;;;6.47;6.28;;;;;;;24.46;100.00;124974.88;5092397;28;20176;-62
2022/08/05 03:59:56;;;;;;;7.25;6.95;;;;;;;24.52;100.00;128378.63;5092298;28;20270;-62
2022/08/05 04:02:25;;;;;;;6.82;6.30;;;;;;;24.58;100.00;135524.22;5092458;28;20245;-62
2022/08/05 04:04:53;;;;;;;6.47;6.18;;;;;;;24.50;100.00;141289.81;5092488;28;20184;-61
2022/08/05 04:07:20;;;;;;;6.32;6.00;;;;;;;24.91;100.00;148420.41;5092175;28;20200;-62
2022/08/05 04:09:47;;;;;;;6.55;6.07;;;;;;;25.08;100.00;152345.50;5092170;28;20188;-62
2022/08/05 04:12:14;;;;;;;7.22;6.57;;;;;;;25.12;100.00;152355.72;5092068;28;20245;-62
2022/08/05 04:14:43;;;;;;;6.68;6.20;;;;;;;25.25;100.00;152388.97;5091910;28;20285;-62
2022/08/05 04:17:11;;;;;;;6.60;6.32;;;;;;;25.47;100.00;152445.13;5092058;28;20176;-62
2022/08/05 04:19:42;;;;;;;6.15;5.95;;;;;;;25.59;100.00;152474.63;5091963;28;20187;-61
2022/08/05 04:22:09;;;;;;;6.78;6.07;;;;;;;25.51;100.00;152454.06;5091861;28;20279;-62
2022/08/05 04:24:36;;;;;;;6.82;6.40;;;;;;;25.72;100.00;152509.09;5092203;28;20643;-62
2022/08/05 04:27:03;;;;;;;7.20;6.53;;;;;;;25.83;100.00;152537.22;5092194;28;20665;-63
2022/08/05 04:29:30;;;;;;;7.30;5.85;;;;;;;26.07;100.00;152596.00;5091725;28;20241;-61
2022/08/05 04:31:58;;;;;;;7.20;6.60;;;;;;;26.08;100.00;152598.56;5090647;28;20233;-61
2022/08/05 04:34:25;;;;;;;6.32;5.85;;;;;;;26.26;100.00;152645.94;5092135;28;20184;-61
2022/08/05 04:36:52;;;;;;;6.07;5.78;;;;;;;26.46;100.00;152694.50;5091827;28;20180;-62
2022/08/05 04:39:20;;;;;;;7.07;6.45;;;;;;;26.45;100.00;152693.22;5092110;28;20227;-61
2022/08/05 04:41:47;;;;;;;5.97;5.63;;;;;;;26.79;100.00;152778.91;5093118;28;20249;-63
2022/08/05 04:44:14;;;;;;;6.78;6.38;;;;;;;27.11;100.00;152859.53;5099008;28;20276;-62
2022/08/05 04:46:41;;;;;;;6.93;6.53;;;;;;;27.26;100.00;152897.91;5098406;28;20299;-62
2022/08/05 04:49:09;;;;;;;7.25;6.85;;;;;;;27.42;100.00;152938.84;5097613;28;20578;-62
2022/08/05 04:51:36;;;;;;;16.98;6.60;;;;;;;27.83;100.00;153041.28;5098437;28;20275;-62
2022/08/05 04:54:03;;;;;;;11.55;6.88;;;;;;;27.98;100.00;153079.66;5098284;28;20180;-62
2022/08/05 04:56:30;;;;;;;9.13;5.78;;;;;;;28.43;100.00;153193.66;5098645;28;20595;-62
2022/08/05 04:58:57;;;;;;;6.70;6.22;;;;;;;28.15;100.00;153123.22;5097391;28;20237;-62
2022/08/05 05:01:24;;;;;;;6.32;6.03;;;;;;;27.97;100.00;153077.06;5098285;28;20240;-62
2022/08/05 05:03:51;;;;;;;14.75;6.20;;;;;;;28.25;100.00;153148.84;5098164;28;20186;-63
2022/08/05 05:06:19;;;;;;;6.13;5.63;;;;;;;28.46;100.00;153201.31;5098457;28;20685;-62
2022/08/05 05:08:46;;;;;;;6.55;6.03;;;;;;;28.74;100.00;153271.75;5098172;28;20226;-62
2022/08/05 05:11:14;;;;;;;12.65;6.75;;;;;;;29.11;100.00;153366.50;5098220;28;20183;-62
2022/08/05 05:13:41;;;;;;;11.75;6.68;;;;;;;29.26;100.00;153404.97;5098200;28;20709;-62
2022/08/05 05:16:08;;;;;;;7.53;6.85;;;;;;;29.47;100.00;153458.81;5098148;28;20180;-63
2022/08/05 05:18:35;;;;;;;6.78;5.70;;;;;;;29.58;100.00;153485.69;5098446;28;20188;-63
2022/08/05 05:21:03;;;;;;;6.43;5.90;;;;;;;29.75;100.00;153527.97;5098074;28;20184;-63
2022/08/05 05:23:31;;;;;;;9.13;5.65;;;;;;;29.87;100.00;153560.06;5097974;28;20186;-62
2022/08/05 05:25:58;;;;;;;5.35;5.15;;;;;;;29.99;100.00;153589.56;5098257;28;20608;-63
2022/08/05 05:28:25;;;;;;;79.00;70.90;;;;;;;30.06;100.00;153607.47;5096769;28;20666;-62
2022/08/05 05:30:52;;;;;;;6.35;5.95;;;;;;;30.38;100.00;153688.25;5098067;28;20184;-63
2022/08/05 05:33:19;;;;;;;5.82;5.35;;;;;;;30.75;100.00;153781.88;5097961;28;20180;-62
2022/08/05 05:35:46;;;;;;;6.13;5.75;;;;;;;30.95;100.00;153831.84;5098033;28;20250;-62
2022/08/05 05:38:13;;;;;;;5.85;5.57;;;;;;;31.67;100.00;154015.34;5097915;28;20188;-64
2022/08/05 05:40:43;;;;;;;6.25;5.40;;;;;;;32.27;100.00;154168.06;5097614;28;20215;-63
2022/08/05 05:43:10;;;;;;;5.47;5.18;;;;;;;32.34;100.00;154184.72;5098091;28;20246;-62
2022/08/05 05:45:37;;;;;;;5.72;5.45;;;;;;;32.45;100.00;154212.97;5098054;28;20179;-61
2022/08/05 05:48:06;;;;;;;6.03;5.20;;;;;;;32.09;100.00;154121.84;5097819;28;20199;-62
2022/08/05 05:50:34;;;;;;;6.45;5.32;;;;;;;31.54;100.00;153981.94;5097866;28;20192;-62
2022/08/05 05:53:01;;;;;;;6.68;5.57;;;;;;;31.97;100.00;154092.31;5097244;28;20184;-62
2022/08/05 05:55:28;;;;;;;8.82;5.30;;;;;;;32.13;100.00;154132.13;5094589;28;20241;-62
2022/08/05 05:57:56;;;;;;;14.02;6.30;;;;;;;32.06;100.00;154114.13;5094866;28;20607;-63
2022/08/05 06:00:23;;;;;;;5.88;5.45;;;;;;;32.05;100.00;154112.84;5094670;28;20192;-62
2022/08/05 06:02:50;;;;;;;5.38;5.07;;;;;;;31.95;100.00;154087.22;5094301;28;20249;-62
2022/08/05 06:05:19;;;;;;;5.80;5.32;;;;;;;31.74;100.00;154034.56;5094741;28;20634;-63
2022/08/05 06:07:48;;;;;;;5.60;5.40;;;;;;;31.66;100.00;154014.06;5094114;28;20204;-63
2022/08/05 06:10:15;;;;;;;5.80;5.40;;;;;;;31.42;100.00;153952.44;5094246;28;20219;-61
2022/08/05 06:12:42;;;;;;;6.32;6.03;;;;;;;31.67;100.00;154015.34;5094343;28;20566;-62
2022/08/05 06:15:12;;;;;;;6.03;5.50;;;;;;;31.88;100.00;154067.91;5094475;28;20537;-62
2022/08/05 06:17:39;;;;;;;6.25;5.90;;;;;;;32.12;100.00;154129.59;5094449;28;20177;-62
2022/08/05 06:20:07;;;;;;;6.60;6.07;;;;;;;31.95;100.00;154087.22;5094225;28;20737;-63
2022/08/05 06:22:35;;;;;;;6.50;5.82;;;;;;;31.72;100.00;154028.16;5093928;28;20223;-62
2022/08/05 06:25:02;;;;;;;13.02;5.90;;;;;;;31.94;100.00;154084.63;5094199;28;20578;-62
2022/08/05 06:27:40;;;;;;;7.32;5.68;;;;;;;32.14;100.00;154134.69;5094141;28;20204;-63
2022/08/05 06:30:09;;;;;;;6.88;6.13;;;;;;;32.20;100.00;154150.13;5093868;28;20199;-62
2022/08/05 06:32:37;;;;;;;9.20;6.32;;;;;;;32.40;100.00;154201.44;5093845;28;20199;-62
2022/08/05 06:35:05;;;;;;;6.30;5.90;;;;;;;32.88;100.00;154323.44;5093790;28;20180;-63
2022/08/05 06:37:32;;;;;;;7.78;5.65;;;;;;;33.32;100.00;154435.13;5093986;28;20238;-61
2022/08/05 06:39:59;;;;;;;10.55;6.30;;;;;;;33.58;97.45;154499.31;5093623;28;20214;-62
2022/08/05 06:42:26;;;;;;;7.93;6.38;;;;;;;32.45;100.00;154214.28;5094000;28;20180;-62
2022/08/05 06:44:53;;;;;;;5.75;5.30;;;;;;;32.81;100.00;154304.13;5094167;28;20662;-62
2022/08/05 06:47:22;;;;;;;5.88;5.47;;;;;;;32.94;100.00;154338.78;5093498;28;20227;-62
2022/08/05 06:49:50;;;;;;;8.07;5.40;;;;;;;32.63;100.00;154257.97;5093577;28;20226;-62
2022/08/05 06:52:17;;;;;;;5.30;4.95;;;;;;;32.42;100.00;154206.53;5093849;28;20244;-62
2022/08/05 06:54:44;;;;;;;5.97;5.00;;;;;;;32.44;100.00;154210.41;5093448;28;20180;-63
2022/08/05 06:57:13;;;;;;;6.43;5.78;;;;;;;32.90;100.00;154327.25;5093550;28;20638;-61
2022/08/05 06:59:41;;;;;;;5.55;5.35;;;;;;;33.10;100.00;154377.34;5093154;28;20180;-62
2022/08/05 07:02:08;;;;;;;5.78;5.43;;;;;;;33.15;99.37;154391.47;5093083;28;20249;-62
2022/08/05 07:04:35;;;;;;;4.97;4.70;;;;;;;32.65;100.00;154263.06;5092942;28;20182;-62
2022/08/05 07:07:03;;;;;;;7.70;4.90;;;;;;;32.07;100.00;154116.69;5093254;28;20623;-62
2022/08/05 07:09:30;;;;;;;6.18;5.30;;;;;;;32.42;100.00;154205.31;5093374;28;20188;-62
2022/08/05 07:11:57;;;;;;;5.55;5.28;;;;;;;32.23;100.00;154157.81;5093437;28;20571;-61
2022/08/05 07:17:17;;;;;;;5.50;4.97;;;;;;;32.17;100.00;154143.69;5056588;28;20259;-62
2022/08/05 07:19:44;;;;;;;7.55;5.15;;;;;;;32.44;100.00;154210.41;5093352;28;20565;-62
2022/08/05 07:22:13;;;;;;;6.93;5.57;;;;;;;32.54;100.00;154236.09;5092886;28;20195;-62
2022/08/05 07:24:40;;;;;;;5.57;5.38;;;;;;;32.74;99.30;154287.47;5093252;28;20192;-62
2022/08/05 07:27:07;;;;;;;6.20;5.57;;;;;;;33.04;98.69;154363.19;5093117;28;20281;-62
2022/08/05 07:29:34;;;;;;;5.45;4.93;;;;;;;33.20;98.56;154403.03;5091500;28;20249;-62
2022/08/05 07:32:01;;;;;;;92.97;50.55;;;;;;;33.04;100.00;154364.50;5093129;28;20650;-63
2022/08/05 07:34:27;;;;;;;4.80;4.70;;;;;;;32.60;95.83;154252.75;5092795;28;20188;-63
2022/08/05 07:36:54;;;;;;;6.53;6.18;;;;;;;32.93;97.94;154334.97;5093080;28;20180;-63
2022/08/05 07:39:23;;;;;;;4.97;4.78;;;;;;;32.13;98.81;154133.41;5092797;28;20187;-61
2022/08/05 07:41:50;;;;;;;5.13;4.82;;;;;;;31.71;100.00;154025.59;5091879;28;20184;-63
2022/08/05 07:44:17;;;;;;;4.90;4.72;;;;;;;32.00;98.43;154100.00;5093202;28;20195;-62
2022/08/05 07:46:44;;;;;;;5.10;4.70;;;;;;;32.44;96.56;154210.41;5092237;28;20184;-62
2022/08/05 07:49:12;;;;;;;4.38;4.28;;;;;;;32.34;96.31;154184.72;5090911;28;20196;-63
2022/08/05 07:51:39;;;;;;;4.72;4.57;;;;;;;32.54;94.20;154236.09;5091945;28;20199;-62
2022/08/05 07:54:06;;;;;;;4.70;4.47;;;;;;;31.73;99.74;154030.75;5092410;28;20184;-62
2022/08/05 07:56:37;;;;;;;4.85;4.45;;;;;;;31.95;98.12;154085.91;5092422;28;20237;-62
2022/08/05 07:59:04;;;;;;;6.25;4.65;;;;;;;31.77;96.34;154039.72;5092192;28;20207;-63
2022/08/05 08:01:31;;;;;;;4.38;4.22;;;;;;;32.51;96.72;154228.34;5092311;28;20200;-62
2022/08/05 08:03:58;;;;;;;4.82;4.63;;;;;;;33.12;92.51;154382.44;5092403;28;20188;-63
2022/08/05 08:06:25;;;;;;;4.45;4.25;;;;;;;32.96;91.86;154343.97;5092270;28;20640;-62
2022/08/05 08:08:52;;;;;;;5.05;4.45;;;;;;;33.39;89.44;154453.13;5092281;28;20239;-62
2022/08/05 08:11:19;;;;;;;4.15;4.05;;;;;;;33.16;87.45;154392.75;5092281;28;20642;-61
2022/08/05 08:13:50;;;;;;;4.60;4.28;;;;;;;33.32;86.94;154435.13;5091916;28;20263;-61
2022/08/05 08:16:17;;;;;;;4.32;4.22;;;;;;;33.21;87.17;154405.59;5091464;28;20196;-64
2022/08/05 08:18:44;;;;;;;3.78;3.67;;;;;;;33.22;84.68;154409.47;5091882;28;20223;-63
2022/08/05 08:21:11;;;;;;;5.38;4.47;;;;;;;33.42;80.73;154460.81;5091959;28;20184;-62
2022/08/05 08:23:38;;;;;;;7.00;3.90;;;;;;;33.49;84.36;154477.50;5092127;28;20627;-61
2022/08/05 08:26:05;;;;;;;4.10;3.95;;;;;;;33.77;80.41;154549.50;5091786;28;20223;-63
2022/08/05 08:28:33;;;;;;;5.00;4.55;;;;;;;33.10;83.28;154377.34;5091719;28;20215;-62
2022/08/05 08:31:01;;;;;;;4.10;3.92;;;;;;;33.72;85.23;154536.63;5091906;28;20192;-62
2022/08/05 08:33:28;;;;;;;3.75;3.55;;;;;;;34.32;78.59;154688.25;5092120;28;20182;-61
2022/08/05 08:35:55;;;;;;;3.72;3.45;;;;;;;34.86;74.61;154825.78;5091693;28;20191;-62
2022/08/05 08:38:22;;;;;;;3.65;3.45;;;;;;;35.09;71.93;154884.91;5090621;28;20191;-62
2022/08/05 08:40:49;;;;;;;3.65;3.55;;;;;;;34.59;72.00;154756.31;5090457;28;20270;-62
2022/08/05 08:43:18;;;;;;;3.10;3.00;;;;;;;34.33;76.48;154690.84;5091880;28;20196;-62
2022/08/05 08:45:46;;;;;;;3.50;3.40;;;;;;;34.38;74.30;154703.63;5087446;28;20192;-63
2022/08/05 08:48:16;;;;;;;3.67;3.47;;;;;;;34.64;76.62;154769.16;5091769;28;20265;-62
2022/08/05 08:50:44;;;;;;;3.67;3.45;;;;;;;34.34;73.37;154693.38;5091629;28;20184;-62
2022/08/05 08:53:16;;;;;;;7.80;7.05;;;;;;;33.69;78.59;154528.94;5090214;28;20242;-61
2022/08/05 08:55:43;;;;;;;4.13;3.78;;;;;;;34.24;73.34;154669.00;5091478;28;20180;-62
2022/08/05 08:58:10;;;;;;;3.40;3.30;;;;;;;34.60;71.46;154758.91;5091498;28;20227;-62
2022/08/05 09:00:39;;;;;;;3.78;3.50;;;;;;;35.22;73.63;154918.31;5091500;28;20184;-63
2022/08/05 09:03:07;;;;;;;3.95;3.75;;;;;;;35.58;68.49;155008.31;5091735;28;20627;-63
2022/08/05 09:05:35;;;;;;;3.83;3.70;;;;;;;35.78;66.17;155058.50;5091652;28;20253;-63
2022/08/05 09:08:02;;;;;;;3.20;3.10;;;;;;;35.91;65.22;155093.22;5090994;28;20208;-62
2022/08/05 09:10:30;;;;;;;3.67;3.47;;;;;;;34.01;69.04;154608.53;5090941;28;20299;-62
2022/08/05 09:12:58;;;;;;;4.22;3.95;;;;;;;32.93;77.96;154334.97;5090820;28;20289;-62
2022/08/05 09:15:25;;;;;;;4.05;3.75;;;;;;;33.60;78.29;154504.47;5091264;28;20212;-62
2022/08/05 09:17:52;;;;;;;4.00;3.70;;;;;;;34.43;78.82;154716.50;5090891;28;20180;-61
2022/08/05 09:20:19;;;;;;;3.53;3.40;;;;;;;34.78;73.43;154805.22;5091289;28;20673;-62
2022/08/05 09:23:09;;;;;;;3.72;3.63;;;;;;;34.56;72.17;154749.91;5090925;28;20313;-62
2022/08/05 09:25:38;;;;;;;4.10;3.78;;;;;;;35.13;72.34;154895.19;5091418;28;20611;-62
2022/08/05 09:28:14;;;;;;;4.65;4.43;;;;;;;35.34;65.90;154947.94;5092067;28;20650;-61
2022/08/05 09:31:03;;;;;;;4.88;3.72;;;;;;;35.36;67.07;154953.03;5095328;28;20625;-63
2022/08/05 09:33:31;;;;;;;3.70;3.60;;;;;;;35.77;64.54;155055.97;5094894;28;20188;-62
2022/08/05 09:35:59;;;;;;;4.53;4.00;;;;;;;34.44;71.34;154719.06;5095127;28;20585;-61
2022/08/05 09:38:29;;;;;;;4.32;4.10;;;;;;;32.88;81.97;154322.13;5095113;28;20554;-62
2022/08/05 09:41:04;;;;;;;4.13;4.03;;;;;;;33.69;80.08;154527.66;5095132;28;20578;-62
2022/08/05 09:43:33;;;;;;;5.88;4.07;;;;;;;34.48;79.68;154729.34;5094927;28;20196;-62
2022/08/05 09:46:03;;;;;;;4.03;3.80;;;;;;;34.90;72.38;154836.03;5094419;28;20728;-62
2022/08/05 09:48:32;;;;;;;4.07;3.97;;;;;;;34.97;70.10;154854.03;5096687;28;20231;-62
2022/08/05 09:51:01;;;;;;;4.03;3.83;;;;;;;34.80;71.65;154811.63;5097067;28;20192;-62
2022/08/05 09:53:31;;;;;;;4.20;4.10;;;;;;;34.01;76.46;154609.84;5096965;28;20180;-62
2022/08/05 09:55:59;;;;;;;4.43;4.25;;;;;;;33.32;82.35;154433.84;5097003;28;20209;-61
2022/08/05 09:58:27;;;;;;;4.28;4.18;;;;;;;32.32;86.40;154180.91;5097773;28;20184;-62
2022/08/05 10:00:58;;;;;;;4.82;4.43;;;;;;;31.98;89.62;154093.59;5097467;28;20555;-63
2022/08/05 10:03:26;;;;;;;6.22;5.18;;;;;;;30.67;100.00;153761.34;5096573;28;20227;-62
2022/08/05 10:06:07;;;;;;;6.10;5.75;;;;;;;30.52;100.00;153722.88;5096972;28;20615;-62
2022/08/05 10:08:37;;;;;;;5.95;5.45;;;;;;;30.22;100.00;153648.47;5094739;28;20634;-60
2022/08/05 10:11:15;;;;;;;6.00;5.60;;;;;;;30.18;100.00;153636.94;5094693;28;20677;-62
2022/08/05 10:13:43;;;;;;;6.10;5.70;;;;;;;30.04;100.00;153602.38;5094156;28;20231;-61
2022/08/05 10:16:29;;;;;;;6.32;5.93;;;;;;;30.31;100.00;153671.56;5094629;28;20245;-62
2022/08/05 10:18:56;;;;;;;6.35;5.72;;;;;;;30.48;100.00;153713.91;5094457;28;20184;-61
2022/08/05 10:21:23;;;;;;;5.97;5.47;;;;;;;30.25;100.00;153656.22;5095510;28;20680;-60
2022/08/05 10:23:52;;;;;;;6.18;5.78;;;;;;;29.89;100.00;153563.91;5094997;28;20188;-62
2022/08/05 10:26:19;;;;;;;6.10;5.80;;;;;;;29.60;100.00;153489.56;5094292;28;20239;-61
2022/08/05 10:28:47;;;;;;;6.88;6.30;;;;;;;29.66;100.00;153506.25;5094796;28;20608;-62
2022/08/05 10:31:15;;;;;;;5.95;5.60;;;;;;;29.62;100.00;153495.94;5095052;28;20185;-63
2022/08/05 10:33:43;;;;;;;10.75;5.95;;;;;;;29.19;100.00;153385.78;5094043;28;20180;-61
2022/08/05 10:36:10;;;;;;;7.20;5.60;;;;;;;29.04;100.00;153348.59;5094098;28;20620;-62
2022/08/05 10:38:39;;;;;;;6.20;5.80;;;;;;;29.11;100.00;153365.28;5094252;28;20608;-62
2022/08/05 10:41:18;;;;;;;5.82;5.53;;;;;;;28.92;100.00;153317.88;5092874;28;20187;-61
2022/08/05 10:43:51;;;;;;;5.70;5.50;;;;;;;28.88;100.00;153308.91;5092724;28;20244;-62
2022/08/05 10:46:21;;;;;;;5.72;5.38;;;;;;;28.96;100.00;153329.41;5095627;28;20192;-63
2022/08/05 10:48:52;;;;;;;6.03;5.82;;;;;;;28.97;100.00;153330.69;5093899;28;20208;-62
2022/08/05 10:51:23;;;;;;;6.22;5.57;;;;;;;29.38;100.00;153435.75;5093483;28;20188;-63
2022/08/05 10:53:55;;;;;;;5.72;5.47;;;;;;;29.41;100.00;153442.13;5093807;28;20707;-63
2022/08/05 10:56:25;;;;;;;5.57;5.47;;;;;;;29.52;100.00;153469.06;5094014;28;20180;-61
2022/08/05 10:59:05;;;;;;;6.53;5.97;;;;;;;29.49;100.00;153462.69;5093647;28;20241;-61
2022/08/05 11:01:35;;;;;;;7.18;6.10;;;;;;;29.61;100.00;153492.13;5093664;28;20237;-62
2022/08/05 11:04:10;;;;;;;5.90;5.40;;;;;;;29.53;100.00;153471.63;5093636;28;20180;-62
2022/08/05 11:07:05;;;;;;;5.32;5.13;;;;;;;29.29;100.00;153411.41;5093169;28;20184;-62
2022/08/05 11:09:51;;;;;;;5.72;5.38;;;;;;;28.92;100.00;153317.88;5093684;28;20590;-61
2022/08/05 11:12:45;;;;;;;6.45;5.88;;;;;;;28.86;100.00;153302.50;5093462;28;20587;-63
2022/08/05 11:15:24;;;;;;;5.03;4.85;;;;;;;28.82;100.00;153292.25;5092012;28;20236;-62
2022/08/05 11:17:52;;;;;;;6.07;5.50;;;;;;;28.73;100.00;153269.25;5093201;28;20670;-63
2022/08/05 11:20:40;;;;;;;5.65;5.25;;;;;;;28.56;100.00;153228.19;5093565;28;20700;-60
2022/08/05 11:23:43;;;;;;;6.28;6.00;;;;;;;28.60;100.00;153237.19;5093419;28;20691;-62
2022/08/05 11:26:21;;;;;;;5.50;5.30;;;;;;;28.41;100.00;153189.78;5030681;28;20212;-62
2022/08/05 11:28:50;;;;;;;6.20;5.70;;;;;;;28.54;100.00;153223.09;5030631;28;20227;-61